createdAt,value
2022-08-05T00:00:03.764Z,59.23
2022-08-05T00:01:27.239Z,59.44
2022-08-05T00:02:07.290Z,59.23
2022-08-05T00:03:03.716Z,59.34
2022-08-05T00:04:03.717Z,59.44
2022-08-05T00:05:05.806Z,60.03
2022-08-05T00:06:21.163Z,61.06
2022-08-05T00:07:27.247Z,60.86
2022-08-05T00:08:04.778Z,61.19
2022-08-05T00:09:03.650Z,60.39
2022-08-05T00:10:03.622Z,60.99
2022-08-05T00:11:03.618Z,60.59
2022-08-05T00:12:03.600Z,60.09
2022-08-05T00:13:03.589Z,60.89
2022-08-05T00:14:12.746Z,61.09
2022-08-05T00:15:14.166Z,61.09
2022-08-05T00:16:04.551Z,61.29
2022-08-05T00:17:03.550Z,61.29
2022-08-05T00:18:03.532Z,61.29
2022-08-05T00:19:03.514Z,61.58
2022-08-05T00:20:03.500Z,61.79
2022-08-05T00:21:03.483Z,62.29
2022-08-05T00:22:03.467Z,61.52
2022-08-05T00:23:13.030Z,61.41
2022-08-05T00:24:10.723Z,61.71
2022-08-05T00:25:04.650Z,61.71
2022-08-05T00:26:03.415Z,61.61
2022-08-05T00:27:04.742Z,62.01
2022-08-05T00:28:04.397Z,61.91
2022-08-05T00:29:03.390Z,62.54
2022-08-05T00:30:04.310Z,62.04
2022-08-05T00:31:04.372Z,62.04
2022-08-05T00:32:13.364Z,62.45
2022-08-05T00:33:04.328Z,62.64
2022-08-05T00:34:53.477Z,62.74
2022-08-05T00:35:07.457Z,62.84
2022-08-05T00:36:15.912Z,62.64
2022-08-05T00:37:09.672Z,62.74
2022-08-05T00:38:04.260Z,62.84
2022-08-05T00:39:04.330Z,63.14
2022-08-05T00:40:03.251Z,63.64
2022-08-05T00:41:04.229Z,63.37
2022-08-05T00:42:04.216Z,63.37
2022-08-05T00:43:07.606Z,63.37
2022-08-05T00:44:03.197Z,63.34
2022-08-05T00:45:03.173Z,63.24
2022-08-05T00:46:03.161Z,63.14
2022-08-05T00:47:04.086Z,62.94
2022-08-05T00:48:05.329Z,62.94
2022-08-05T00:49:03.146Z,62.74
2022-08-05T00:50:03.104Z,62.54
2022-08-05T00:51:49.912Z,62.64
2022-08-05T00:52:04.075Z,62.74
2022-08-05T00:53:03.083Z,65.07
2022-08-05T00:54:04.304Z,63.77
2022-08-05T00:55:03.047Z,63.47
2022-08-05T00:56:03.026Z,64.07
2022-08-05T00:57:03.018Z,65.87
2022-08-05T00:58:02.999Z,65.30
2022-08-05T00:59:02.998Z,65.30
2022-08-05T01:00:02.979Z,65.63
2022-08-05T01:01:03.076Z,67.23
2022-08-05T01:02:03.969Z,66.03
2022-08-05T01:03:02.942Z,66.23
2022-08-05T01:04:03.930Z,67.66
2022-08-05T01:05:05.069Z,67.46
2022-08-05T01:06:05.585Z,67.26
2022-08-05T01:07:05.144Z,66.96
2022-08-05T01:08:40.112Z,66.76
2022-08-05T01:09:03.865Z,66.16
2022-08-05T01:10:02.849Z,66.36
2022-08-05T01:11:03.835Z,66.36
2022-08-05T01:12:09.213Z,66.36
2022-08-05T01:13:05.408Z,66.46
2022-08-05T01:14:03.804Z,66.26
2022-08-05T01:15:04.117Z,66.16
2022-08-05T01:16:02.765Z,66.16
2022-08-05T01:17:02.768Z,65.96
2022-08-05T01:18:02.743Z,65.96
2022-08-05T01:19:03.695Z,65.76
2022-08-05T01:20:03.558Z,65.96
2022-08-05T01:21:02.712Z,66.16
2022-08-05T01:22:02.689Z,66.06
2022-08-05T01:23:13.581Z,66.36
2022-08-05T01:24:13.073Z,66.36
2022-08-05T01:25:04.592Z,66.46
2022-08-05T01:26:02.631Z,66.66
2022-08-05T01:27:17.770Z,67.26
2022-08-05T01:28:03.622Z,67.06
2022-08-05T01:29:04.262Z,67.56
2022-08-05T01:30:02.584Z,67.26
2022-08-05T01:31:03.053Z,67.26
2022-08-05T01:32:02.562Z,67.56
2022-08-05T01:33:02.563Z,68.16
2022-08-05T01:34:02.532Z,68.36
2022-08-05T01:35:02.523Z,68.86
2022-08-05T01:36:02.511Z,68.43
2022-08-05T01:37:02.494Z,69.13
2022-08-05T01:38:02.494Z,68.73
2022-08-05T01:39:02.552Z,67.93
2022-08-05T01:40:02.484Z,69.62
2022-08-05T01:41:02.452Z,69.43
2022-08-05T01:42:02.436Z,69.02
2022-08-05T01:43:02.445Z,68.96
2022-08-05T01:44:02.403Z,69.36
2022-08-05T01:45:03.419Z,69.56
2022-08-05T01:46:07.204Z,69.76
2022-08-05T01:48:12.584Z,69.46
2022-08-05T01:49:23.279Z,70.16
2022-08-05T01:50:15.630Z,69.96
2022-08-05T01:51:13.089Z,69.76
2022-08-05T01:52:17.422Z,70.26
2022-08-05T01:53:13.529Z,70.16
2022-08-05T01:54:12.495Z,70.26
2022-08-05T01:55:13.486Z,70.16
2022-08-05T01:56:12.468Z,71.66
2022-08-05T01:58:12.772Z,70.49
2022-08-05T01:58:15.875Z,69.86
2022-08-05T01:59:12.428Z,71.19
2022-08-05T02:00:12.566Z,71.49
2022-08-05T02:01:12.406Z,71.29
2022-08-05T02:02:12.424Z,70.79
2022-08-05T02:03:24.108Z,69.19
2022-08-05T02:04:13.361Z,71.09
2022-08-05T02:05:12.404Z,71.19
2022-08-05T02:06:24.048Z,70.59
2022-08-05T02:07:22.437Z,71.59
2022-08-05T02:08:13.320Z,71.39
2022-08-05T02:09:14.752Z,71.89
2022-08-05T02:10:17.184Z,71.59
2022-08-05T02:11:13.272Z,71.12
2022-08-05T02:12:12.252Z,71.33
2022-08-05T02:13:16.151Z,72.13
2022-08-05T02:14:12.421Z,72.33
2022-08-05T02:15:12.631Z,71.92
2022-08-05T02:16:16.486Z,73.22
2022-08-05T02:17:17.085Z,72.03
2022-08-05T02:18:31.308Z,71.92
2022-08-05T02:19:13.165Z,71.42
2022-08-05T02:20:12.155Z,73.43
2022-08-05T02:21:14.943Z,72.96
2022-08-05T02:22:17.419Z,73.16
2022-08-05T02:23:13.529Z,71.86
2022-08-05T02:24:12.098Z,72.76
2022-08-05T02:25:13.095Z,72.66
2022-08-05T02:26:12.079Z,73.36
2022-08-05T02:27:12.064Z,72.96
2022-08-05T02:28:12.076Z,72.26
2022-08-05T02:29:21.716Z,73.66
2022-08-05T02:30:13.020Z,72.66
2022-08-05T02:31:14.642Z,73.36
2022-08-05T02:32:11.990Z,72.96
2022-08-05T02:33:12.997Z,74.37
2022-08-05T02:34:13.924Z,74.06
2022-08-05T02:35:14.286Z,74.26
2022-08-05T02:36:13.731Z,74.00
2022-08-05T02:37:11.937Z,73.70
2022-08-05T02:38:11.933Z,73.50
2022-08-05T02:39:12.938Z,73.00
2022-08-05T02:40:11.882Z,73.00
2022-08-05T02:41:17.063Z,73.60
2022-08-05T02:42:26.043Z,74.90
2022-08-05T02:43:12.870Z,74.20
2022-08-05T02:44:13.171Z,73.80
2022-08-05T02:45:11.825Z,73.50
2022-08-05T02:46:11.805Z,73.19
2022-08-05T02:47:11.795Z,72.60
2022-08-05T02:48:12.990Z,73.10
2022-08-05T02:49:11.777Z,73.50
2022-08-05T02:50:11.777Z,72.89
2022-08-05T02:51:11.747Z,73.39
2022-08-05T02:52:13.588Z,75.00
2022-08-05T02:53:18.955Z,74.30
2022-08-05T02:54:34.842Z,73.10
2022-08-05T02:55:12.699Z,73.10
2022-08-05T02:56:18.624Z,73.70
2022-08-05T02:58:11.773Z,74.80
2022-08-05T02:58:13.217Z,75.80
2022-08-05T02:59:11.648Z,73.80
2022-08-05T03:00:11.623Z,73.03
2022-08-05T03:01:11.631Z,75.13
2022-08-05T03:02:11.621Z,74.93
2022-08-05T03:03:11.593Z,74.63
2022-08-05T03:04:14.124Z,76.04
2022-08-05T03:05:11.572Z,77.44
2022-08-05T03:06:53.880Z,77.94
2022-08-05T03:07:21.438Z,78.18
2022-08-05T03:08:12.719Z,75.77
2022-08-05T03:09:11.509Z,75.67
2022-08-05T03:10:11.488Z,76.47
2022-08-05T03:11:54.329Z,78.28
2022-08-05T03:12:12.474Z,77.67
2022-08-05T03:13:51.581Z,76.17
2022-08-05T03:14:46.071Z,75.87
2022-08-05T03:15:41.712Z,76.67
2022-08-05T03:16:40.731Z,78.78
2022-08-05T03:17:41.732Z,77.48
2022-08-05T03:18:42.211Z,76.51
2022-08-05T03:19:41.879Z,76.87
2022-08-05T03:20:48.681Z,76.07
2022-08-05T03:21:48.820Z,75.87
2022-08-05T03:22:46.822Z,76.37
2022-08-05T03:23:41.615Z,76.57
2022-08-05T03:24:40.605Z,76.87
2022-08-05T03:26:30.474Z,77.08
2022-08-05T03:26:41.587Z,77.87
2022-08-05T03:28:00.188Z,79.08
2022-08-05T03:28:41.552Z,78.28
2022-08-05T03:29:45.565Z,76.87
2022-08-05T03:30:42.445Z,77.91
2022-08-05T03:31:56.825Z,77.01
2022-08-05T03:32:41.509Z,77.81
2022-08-05T03:33:51.102Z,78.02
2022-08-05T03:34:41.478Z,78.02
2022-08-05T03:35:41.629Z,77.01
2022-08-05T03:36:40.478Z,77.81
2022-08-05T03:37:45.874Z,77.51
2022-08-05T03:38:41.420Z,78.22
2022-08-05T03:39:57.741Z,77.01
2022-08-05T03:40:41.450Z,76.91
2022-08-05T03:41:46.914Z,77.61
2022-08-05T03:42:41.759Z,78.11
2022-08-05T03:44:08.074Z,77.21
2022-08-05T03:44:41.344Z,78.02
2022-08-05T03:45:55.089Z,78.52
2022-08-05T03:46:41.355Z,79.62
2022-08-05T03:47:41.370Z,79.52
2022-08-05T03:48:40.299Z,80.32
2022-08-05T03:49:51.969Z,80.02
2022-08-05T03:50:41.276Z,79.32
2022-08-05T03:52:37.774Z,80.82
2022-08-05T03:55:06.779Z,81.12
2022-08-05T03:55:50.442Z,81.12
2022-08-05T03:55:50.693Z,79.22
2022-08-05T03:56:04.637Z,81.02
2022-08-05T03:56:41.453Z,81.02
2022-08-05T03:57:42.559Z,81.12
2022-08-05T03:58:41.193Z,79.82
2022-08-05T03:59:46.519Z,81.23
2022-08-05T04:00:41.933Z,80.52
2022-08-05T04:01:40.212Z,80.08
2022-08-05T04:02:51.932Z,80.79
2022-08-05T04:03:41.098Z,81.59
2022-08-05T04:04:41.091Z,81.29
2022-08-05T04:05:40.203Z,79.58
2022-08-05T04:06:47.555Z,80.28
2022-08-05T04:07:53.046Z,80.18
2022-08-05T04:08:41.043Z,80.79
2022-08-05T04:09:40.012Z,80.58
2022-08-05T04:10:41.003Z,79.68
2022-08-05T04:11:47.621Z,78.88
2022-08-05T04:13:10.250Z,79.78
2022-08-05T04:14:10.242Z,80.28
2022-08-05T04:15:15.708Z,79.14
2022-08-05T04:16:11.221Z,81.35
2022-08-05T04:17:10.212Z,80.44
2022-08-05T04:18:12.748Z,80.54
2022-08-05T04:19:11.172Z,79.24
2022-08-05T04:20:10.172Z,81.24
2022-08-05T04:21:11.092Z,81.04
2022-08-05T04:22:12.078Z,77.94
2022-08-05T04:23:12.260Z,80.15
2022-08-05T04:24:19.242Z,81.65
2022-08-05T04:25:11.094Z,80.85
2022-08-05T04:26:10.096Z,80.41
2022-08-05T04:27:10.086Z,79.50
2022-08-05T04:28:11.339Z,80.41
2022-08-05T04:29:10.046Z,80.80
2022-08-05T04:30:10.046Z,81.91
2022-08-05T04:31:10.631Z,82.65
2022-08-05T04:32:10.017Z,81.81
2022-08-05T04:33:09.989Z,80.35
2022-08-05T04:34:31.189Z,82.11
2022-08-05T04:35:13.500Z,79.71
2022-08-05T04:36:38.579Z,80.41
2022-08-05T04:37:10.963Z,80.91
2022-08-05T04:38:09.929Z,81.61
2022-08-05T04:39:10.989Z,80.80
2022-08-05T04:40:09.910Z,79.10
2022-08-05T04:41:10.147Z,80.57
2022-08-05T04:42:09.888Z,81.37
2022-08-05T04:43:11.069Z,79.86
2022-08-05T04:44:10.851Z,81.17
2022-08-05T04:45:09.841Z,81.57
2022-08-05T04:46:09.842Z,81.17
2022-08-05T04:47:10.441Z,81.57
2022-08-05T04:48:16.418Z,81.17
2022-08-05T04:49:14.534Z,81.77
2022-08-05T04:50:11.501Z,82.07
2022-08-05T04:51:11.449Z,82.37
2022-08-05T04:52:09.755Z,81.77
2022-08-05T04:53:09.734Z,82.37
2022-08-05T04:54:09.838Z,81.77
2022-08-05T04:55:14.194Z,82.07
2022-08-05T04:56:32.852Z,82.33
2022-08-05T04:57:10.716Z,82.67
2022-08-05T04:58:09.706Z,82.47
2022-08-05T04:59:21.696Z,83.07
2022-08-05T05:00:10.716Z,82.67
2022-08-05T05:01:09.744Z,82.67
2022-08-05T05:02:36.709Z,82.77
2022-08-05T05:03:10.681Z,82.57
2022-08-05T05:04:09.590Z,82.67
2022-08-05T05:05:26.309Z,82.67
2022-08-05T05:06:38.944Z,82.77
2022-08-05T05:07:10.556Z,83.17
2022-08-05T05:08:14.472Z,83.27
2022-08-05T05:09:10.521Z,82.67
2022-08-05T05:10:09.518Z,82.97
2022-08-05T05:11:09.510Z,82.57
2022-08-05T05:12:09.496Z,82.67
2022-08-05T05:13:09.480Z,82.57
2022-08-05T05:14:09.471Z,81.97
2022-08-05T05:15:10.606Z,82.27
2022-08-05T05:16:09.443Z,82.37
2022-08-05T05:17:09.586Z,82.47
2022-08-05T05:18:09.422Z,82.27
2022-08-05T05:19:19.308Z,82.07
2022-08-05T05:20:10.386Z,82.27
2022-08-05T05:21:09.423Z,81.97
2022-08-05T05:22:22.645Z,81.73
2022-08-05T05:23:19.900Z,81.33
2022-08-05T05:24:10.346Z,81.33
2022-08-05T05:25:16.909Z,81.53
2022-08-05T05:26:10.318Z,81.23
2022-08-05T05:27:09.290Z,81.33
2022-08-05T05:28:09.397Z,81.33
2022-08-05T05:29:14.325Z,81.03
2022-08-05T05:30:15.454Z,81.33
2022-08-05T05:31:10.250Z,80.79
2022-08-05T05:32:12.564Z,80.69
2022-08-05T05:33:17.042Z,80.09
2022-08-05T05:34:10.202Z,79.89
2022-08-05T05:35:09.193Z,79.69
2022-08-05T05:36:09.192Z,79.05
2022-08-05T05:37:09.164Z,79.65
2022-08-05T05:38:13.163Z,79.65
2022-08-05T05:39:09.868Z,79.05
2022-08-05T05:40:09.133Z,78.85
2022-08-05T05:41:09.123Z,79.22
2022-08-05T05:42:09.103Z,78.66
2022-08-05T05:43:09.094Z,78.72
2022-08-05T05:44:37.036Z,78.12
2022-08-05T05:45:10.067Z,78.31
2022-08-05T05:46:15.776Z,78.02
2022-08-05T05:47:13.188Z,78.12
2022-08-05T05:48:10.069Z,78.12
2022-08-05T05:49:22.616Z,77.92
2022-08-05T05:50:09.997Z,77.92
2022-08-05T05:51:15.527Z,78.12
2022-08-05T05:52:12.976Z,78.22
2022-08-05T05:53:22.049Z,78.22
2022-08-05T05:54:11.660Z,78.22
2022-08-05T05:55:13.673Z,78.18
2022-08-05T05:56:08.929Z,78.28
2022-08-05T05:57:13.614Z,78.08
2022-08-05T05:58:09.890Z,78.38
2022-08-05T05:59:08.881Z,78.28
2022-08-05T06:00:08.860Z,77.88
2022-08-05T06:01:12.858Z,78.38
2022-08-05T06:02:08.842Z,78.08
2022-08-05T06:03:39.938Z,78.48
2022-08-05T06:04:11.330Z,78.38
2022-08-05T06:05:10.426Z,78.68
2022-08-05T06:06:09.803Z,79.17
2022-08-05T06:07:08.875Z,79.48
2022-08-05T06:08:08.773Z,79.04
2022-08-05T06:09:08.757Z,78.94
2022-08-05T06:10:10.502Z,78.94
2022-08-05T06:11:08.734Z,79.24
2022-08-05T06:12:09.799Z,78.74
2022-08-05T06:13:08.696Z,78.20
2022-08-05T06:14:08.677Z,78.20
2022-08-05T06:15:09.917Z,77.70
2022-08-05T06:16:29.806Z,77.91
2022-08-05T06:17:22.129Z,77.81
2022-08-05T06:18:09.641Z,77.07
2022-08-05T06:19:09.579Z,77.27
2022-08-05T06:20:08.609Z,76.64
2022-08-05T06:21:16.788Z,76.43
2022-08-05T06:22:09.575Z,76.04
2022-08-05T06:23:08.572Z,75.84
2022-08-05T06:24:12.022Z,75.80
2022-08-05T06:25:24.894Z,76.10
2022-08-05T06:26:13.657Z,75.16
2022-08-05T06:28:09.295Z,75.07
2022-08-05T06:28:11.703Z,74.87
2022-08-05T06:29:43.018Z,74.27
2022-08-05T06:30:20.107Z,74.37
2022-08-05T06:31:11.088Z,74.04
2022-08-05T06:32:24.803Z,74.04
2022-08-05T06:33:10.058Z,73.74
2022-08-05T06:34:09.150Z,73.34
2022-08-05T06:35:21.802Z,73.21
2022-08-05T06:36:10.069Z,73.11
2022-08-05T06:37:08.416Z,72.71
2022-08-05T06:38:11.228Z,72.17
2022-08-05T06:39:08.396Z,71.98
2022-08-05T06:40:08.336Z,71.28
2022-08-05T06:41:08.425Z,71.05
2022-08-05T06:42:08.316Z,70.75
2022-08-05T06:43:58.137Z,71.45
2022-08-05T06:44:09.288Z,71.05
2022-08-05T06:45:08.786Z,71.55
2022-08-05T06:46:08.279Z,71.61
2022-08-05T06:47:10.289Z,70.52
2022-08-05T06:48:44.270Z,70.02
2022-08-05T06:49:09.318Z,70.62
2022-08-05T06:50:08.210Z,70.12
2022-08-05T06:51:09.682Z,71.15
2022-08-05T06:52:08.189Z,70.95
2022-08-05T06:53:19.558Z,71.84
2022-08-05T06:54:09.162Z,71.15
2022-08-05T06:55:08.162Z,71.78
2022-08-05T06:56:25.787Z,71.98
2022-08-05T06:57:56.935Z,72.17
2022-08-05T06:58:29.097Z,71.51
2022-08-05T06:59:09.922Z,71.72
2022-08-05T07:00:09.845Z,72.61
2022-08-05T07:01:08.173Z,72.41
2022-08-05T07:02:09.087Z,72.51
2022-08-05T07:03:09.725Z,73.04
2022-08-05T07:04:08.036Z,73.64
2022-08-05T07:05:14.306Z,73.84
2022-08-05T07:06:14.228Z,73.34
2022-08-05T07:07:08.997Z,72.94
2022-08-05T07:08:10.659Z,73.14
2022-08-05T07:09:07.974Z,72.21
2022-08-05T07:10:07.958Z,73.00
2022-08-05T07:11:07.951Z,72.51
2022-08-05T07:12:08.929Z,72.11
2022-08-05T07:13:07.927Z,73.00
2022-08-05T07:14:07.989Z,72.67
2022-08-05T07:15:08.912Z,71.68
2022-08-05T07:16:07.881Z,71.25
2022-08-05T07:17:57.181Z,71.25
2022-08-05T07:18:11.569Z,71.64
2022-08-05T07:19:08.849Z,70.85
2022-08-05T07:21:08.821Z,70.18
2022-08-05T07:22:08.036Z,70.09
2022-08-05T07:23:07.791Z,68.80
2022-08-05T07:24:11.203Z,69.06
2022-08-05T07:25:09.569Z,69.36
2022-08-05T07:26:08.746Z,68.13
2022-08-05T07:27:08.973Z,68.53
2022-08-05T07:28:09.621Z,69.62
2022-08-05T07:29:07.708Z,68.80
2022-08-05T07:30:27.678Z,66.82
2022-08-05T07:31:08.695Z,66.82
2022-08-05T07:32:07.669Z,67.11
2022-08-05T07:33:09.398Z,67.80
2022-08-05T07:34:08.452Z,66.71
2022-08-05T07:36:05.299Z,66.58
2022-08-05T07:36:21.610Z,66.42
2022-08-05T07:37:09.138Z,66.39
2022-08-05T07:38:07.592Z,65.89
2022-08-05T07:39:07.645Z,66.06
2022-08-05T07:40:32.519Z,66.55
2022-08-05T07:42:07.742Z,65.73
2022-08-05T07:42:14.964Z,65.43
2022-08-05T07:43:20.211Z,66.32
2022-08-05T07:44:18.389Z,64.94
2022-08-05T07:45:09.413Z,65.59
2022-08-05T07:46:24.485Z,63.65
2022-08-05T07:47:08.486Z,64.34
2022-08-05T07:48:07.466Z,64.24
2022-08-05T07:49:07.966Z,64.64
2022-08-05T07:50:07.470Z,64.54
2022-08-05T07:51:08.659Z,64.34
2022-08-05T07:52:08.413Z,64.37
2022-08-05T07:53:07.396Z,64.28
2022-08-05T07:54:08.424Z,65.17
2022-08-05T07:55:43.983Z,65.17
2022-08-05T07:56:39.161Z,65.86
2022-08-05T07:57:18.067Z,65.23
2022-08-05T07:58:08.782Z,66.16
2022-08-05T07:59:08.668Z,65.46
2022-08-05T08:00:11.332Z,65.66
2022-08-05T08:01:12.417Z,65.33
2022-08-05T08:02:15.435Z,64.54
2022-08-05T08:03:13.919Z,65.43
2022-08-05T08:04:08.267Z,63.55
2022-08-05T08:05:07.262Z,64.34
2022-08-05T08:06:07.233Z,63.85
2022-08-05T08:07:07.587Z,64.04
2022-08-05T08:08:07.214Z,64.74
2022-08-05T08:09:08.195Z,64.64
2022-08-05T08:10:07.184Z,64.34
2022-08-05T08:11:08.815Z,63.85
2022-08-05T08:12:15.942Z,64.24
2022-08-05T08:13:08.146Z,63.75
2022-08-05T08:14:07.127Z,64.54
2022-08-05T08:15:09.638Z,64.44
2022-08-05T08:16:49.794Z,64.54
2022-08-05T08:17:09.040Z,64.64
2022-08-05T08:18:14.007Z,64.51
2022-08-05T08:19:08.070Z,63.92
2022-08-05T08:20:22.027Z,63.89
2022-08-05T08:21:09.804Z,65.14
2022-08-05T08:22:09.130Z,63.72
2022-08-05T08:23:07.010Z,62.84
2022-08-05T08:24:10.663Z,61.94
2022-08-05T08:25:16.178Z,62.04
2022-08-05T08:26:07.972Z,62.60
2022-08-05T08:27:07.264Z,61.72
2022-08-05T08:28:06.943Z,60.43
2022-08-05T08:29:45.216Z,62.51
2022-08-05T08:30:29.500Z,60.73
2022-08-05T08:31:07.952Z,61.29
2022-08-05T08:32:06.894Z,62.48
2022-08-05T08:33:08.376Z,59.78
2022-08-05T08:34:06.871Z,59.81
2022-08-05T08:35:06.869Z,60.80
2022-08-05T08:37:07.839Z,61.46
2022-08-05T08:38:06.838Z,60.24
2022-08-05T08:39:06.819Z,62.24
2022-08-05T08:40:07.799Z,61.58
2022-08-05T08:41:06.778Z,61.88
2022-08-05T08:42:10.713Z,62.57
2022-08-05T08:45:16.725Z,62.07
2022-08-05T08:45:19.601Z,62.87
2022-08-05T08:45:23.383Z,61.65
2022-08-05T08:46:10.031Z,60.86
2022-08-05T08:47:47.118Z,61.38
2022-08-05T08:48:12.528Z,62.17
2022-08-05T08:50:30.011Z,61.51
2022-08-05T08:50:31.766Z,62.20
2022-08-05T08:51:30.630Z,62.63
2022-08-05T08:52:13.597Z,63.25
2022-08-05T08:53:07.985Z,65.13
2022-08-05T08:54:06.674Z,64.04
2022-08-05T08:55:13.078Z,64.44
2022-08-05T08:56:07.591Z,64.04
2022-08-05T08:57:11.344Z,63.98
2022-08-05T08:58:07.556Z,64.07
2022-08-05T08:59:10.089Z,64.37
2022-08-05T09:00:07.527Z,65.26
2022-08-05T09:01:06.603Z,65.26
2022-08-05T09:02:08.628Z,65.17
2022-08-05T09:03:06.504Z,65.26
2022-08-05T09:04:06.480Z,64.70
2022-08-05T09:05:17.659Z,65.20
2022-08-05T09:06:11.064Z,65.79
2022-08-05T09:07:10.794Z,65.99
2022-08-05T09:08:07.421Z,66.09
2022-08-05T09:09:07.233Z,66.19
2022-08-05T09:10:06.402Z,65.66
2022-08-05T09:11:06.393Z,65.76
2022-08-05T09:12:19.971Z,65.06
2022-08-05T09:13:07.372Z,65.17
2022-08-05T09:14:54.003Z,65.46
2022-08-05T09:15:07.423Z,65.95
2022-08-05T09:16:06.316Z,67.74
2022-08-05T09:17:08.197Z,64.94
2022-08-05T09:18:06.295Z,64.74
2022-08-05T09:19:06.691Z,64.11
2022-08-05T09:20:06.282Z,63.42
2022-08-05T09:21:11.445Z,62.70
2022-08-05T09:22:22.777Z,62.30
2022-08-05T09:23:07.856Z,63.65
2022-08-05T09:24:06.809Z,63.03
2022-08-05T09:25:13.559Z,61.52
2022-08-05T09:26:09.189Z,61.35
2022-08-05T09:27:06.190Z,61.75
2022-08-05T09:28:06.547Z,61.75
2022-08-05T09:29:06.171Z,62.12
2022-08-05T09:30:06.662Z,59.91
2022-08-05T09:32:38.685Z,60.33
2022-08-05T09:32:51.841Z,60.43
2022-08-05T09:33:07.119Z,61.13
2022-08-05T09:34:06.102Z,60.14
2022-08-05T09:35:06.074Z,59.88
2022-08-05T09:36:11.669Z,60.25
2022-08-05T09:37:07.065Z,58.28
2022-08-05T09:38:12.415Z,57.46
2022-08-05T09:39:16.776Z,57.33
2022-08-05T09:40:07.067Z,58.59
2022-08-05T09:41:06.006Z,57.37
2022-08-05T09:42:07.831Z,56.95
2022-08-05T09:43:05.976Z,56.66
2022-08-05T09:44:05.967Z,55.70
2022-08-05T09:45:17.440Z,56.05
2022-08-05T09:46:08.850Z,58.15
2022-08-05T09:47:12.463Z,60.22
2022-08-05T09:48:06.908Z,61.40
2022-08-05T09:49:07.557Z,61.15
2022-08-05T09:50:06.891Z,57.37
2022-08-05T09:51:15.171Z,57.42
2022-08-05T09:52:06.862Z,55.82
2022-08-05T09:53:05.847Z,56.58
2022-08-05T09:54:05.840Z,53.83
2022-08-05T09:55:55.497Z,55.33
2022-08-05T09:56:12.951Z,54.86
2022-08-05T09:57:06.793Z,55.68
2022-08-05T09:58:06.783Z,56.27
2022-08-05T09:59:05.783Z,54.89
2022-08-05T10:00:08.206Z,54.43
2022-08-05T10:01:15.181Z,54.91
2022-08-05T10:02:06.735Z,55.70
2022-08-05T10:03:05.760Z,54.94
2022-08-05T10:04:10.591Z,56.10
2022-08-05T10:05:07.988Z,59.05
2022-08-05T10:06:14.751Z,54.99
2022-08-05T10:07:20.002Z,57.71
2022-08-05T10:08:36.706Z,57.20
2022-08-05T10:09:06.649Z,54.32
2022-08-05T10:10:15.128Z,55.37
2022-08-05T10:11:06.610Z,56.45
2022-08-05T10:12:07.601Z,56.16
2022-08-05T10:13:09.811Z,53.38
2022-08-05T10:14:05.593Z,54.56
2022-08-05T10:15:05.567Z,54.56
2022-08-05T10:16:05.553Z,57.08
2022-08-05T10:17:05.535Z,55.02
2022-08-05T10:18:06.532Z,54.75
2022-08-05T10:19:09.386Z,54.36
2022-08-05T10:20:10.086Z,56.62
2022-08-05T10:21:11.834Z,57.11
2022-08-05T10:22:06.476Z,54.66
2022-08-05T10:23:05.466Z,55.47
2022-08-05T10:24:09.334Z,56.55
2022-08-05T10:25:05.437Z,57.76
2022-08-05T10:26:05.426Z,57.68
2022-08-05T10:27:05.441Z,53.78
2022-08-05T10:28:16.611Z,55.08
2022-08-05T10:29:06.398Z,56.07
2022-08-05T10:30:41.278Z,56.46
2022-08-05T10:32:50.751Z,55.82
2022-08-05T10:32:54.722Z,55.89
2022-08-05T10:33:09.375Z,52.94
2022-08-05T10:34:07.186Z,53.48
2022-08-05T10:35:05.313Z,55.24
2022-08-05T10:36:05.302Z,52.76
2022-08-05T10:37:05.282Z,52.35
2022-08-05T10:38:05.273Z,54.48
2022-08-05T10:39:10.283Z,52.03
2022-08-05T10:40:17.953Z,52.69
2022-08-05T10:41:06.261Z,51.93
2022-08-05T10:42:05.220Z,50.78
2022-08-05T10:43:05.208Z,51.12
2022-08-05T10:44:05.641Z,52.82
2022-08-05T10:45:21.543Z,54.25
2022-08-05T10:46:07.103Z,54.35
2022-08-05T10:47:05.157Z,54.14
2022-08-05T10:48:31.441Z,54.91
2022-08-05T10:49:10.127Z,56.35
2022-08-05T10:50:20.856Z,51.52
2022-08-05T10:51:06.109Z,53.26
2022-08-05T10:52:10.510Z,52.96
2022-08-05T10:53:05.080Z,50.90
2022-08-05T10:54:23.017Z,52.18
2022-08-05T10:55:06.061Z,53.23
2022-08-05T10:56:21.135Z,51.86
2022-08-05T10:57:06.031Z,51.59
2022-08-05T10:58:05.025Z,53.65
2022-08-05T10:59:11.427Z,52.25
2022-08-05T11:00:09.079Z,52.52
2022-08-05T11:01:05.981Z,51.61
2022-08-05T11:02:05.609Z,48.99
2022-08-05T11:03:25.599Z,49.36
2022-08-05T11:04:06.245Z,49.16
2022-08-05T11:05:04.934Z,49.82
2022-08-05T11:06:04.939Z,47.94
2022-08-05T11:07:05.856Z,47.26
2022-08-05T11:08:33.777Z,47.87
2022-08-05T11:09:05.897Z,49.43
2022-08-05T11:10:09.962Z,51.07
2022-08-05T11:11:14.554Z,47.57
2022-08-05T11:12:05.849Z,48.53
2022-08-05T11:13:04.829Z,47.72
2022-08-05T11:14:04.879Z,47.43
2022-08-05T11:15:19.786Z,48.90
2022-08-05T11:16:05.791Z,49.75
2022-08-05T11:17:53.363Z,46.99
2022-08-05T11:18:05.884Z,44.84
2022-08-05T11:20:10.007Z,48.05
2022-08-05T11:20:17.545Z,44.94
2022-08-05T11:21:11.463Z,46.97
2022-08-05T11:22:05.725Z,48.24
2022-08-05T11:23:08.814Z,45.94
2022-08-05T11:24:14.797Z,47.82
2022-08-05T11:26:03.374Z,47.30
2022-08-05T11:26:08.769Z,48.28
2022-08-05T11:27:04.696Z,50.04
2022-08-05T11:28:04.667Z,48.99
2022-08-05T11:29:13.498Z,48.41
2022-08-05T11:30:05.638Z,50.56
2022-08-05T11:31:06.263Z,50.66
2022-08-05T11:32:04.795Z,48.99
2022-08-05T11:33:04.579Z,47.52
2022-08-05T11:34:04.575Z,48.23
2022-08-05T11:35:04.560Z,47.96
2022-08-05T11:36:08.061Z,48.06
2022-08-05T11:37:06.271Z,48.33
2022-08-05T11:38:29.335Z,48.03
2022-08-05T11:39:05.599Z,49.11
2022-08-05T11:40:04.717Z,49.09
2022-08-05T11:41:34.815Z,48.55
2022-08-05T11:42:05.481Z,46.30
2022-08-05T11:43:04.470Z,48.70
2022-08-05T11:44:07.491Z,45.86
2022-08-05T11:45:05.396Z,44.38
2022-08-05T11:46:15.501Z,43.38
2022-08-05T11:47:11.029Z,44.94
2022-08-05T11:48:05.396Z,44.65
2022-08-05T11:49:04.387Z,44.24
2022-08-05T11:50:04.379Z,45.80
2022-08-05T11:51:04.371Z,41.28
2022-08-05T11:52:11.271Z,44.41
2022-08-05T11:53:09.862Z,44.09
2022-08-05T11:54:04.506Z,43.19
2022-08-05T11:55:07.116Z,40.76
2022-08-05T11:56:04.291Z,44.07
2022-08-05T11:57:08.177Z,45.00
2022-08-05T11:58:09.498Z,43.62
2022-08-05T11:59:05.261Z,41.89
2022-08-05T12:00:05.242Z,43.44
2022-08-05T12:01:08.272Z,43.64
2022-08-05T12:02:04.232Z,43.44
2022-08-05T12:03:04.270Z,43.37
2022-08-05T12:04:04.227Z,41.32
2022-08-05T12:05:08.262Z,41.27
2022-08-05T12:06:06.521Z,41.67
2022-08-05T12:07:05.187Z,44.35
2022-08-05T12:08:10.009Z,45.06
2022-08-05T12:09:05.127Z,46.45
2022-08-05T12:10:09.647Z,44.52
2022-08-05T12:11:05.848Z,44.81
2022-08-05T12:12:04.099Z,45.42
2022-08-05T12:13:17.352Z,46.59
2022-08-05T12:14:05.069Z,45.89
2022-08-05T12:15:04.051Z,49.09
2022-08-05T12:16:04.052Z,44.49
2022-08-05T12:17:05.106Z,43.59
2022-08-05T12:18:10.525Z,43.57
2022-08-05T12:19:05.002Z,42.21
2022-08-05T12:20:26.399Z,43.20
2022-08-05T12:21:04.984Z,44.26
2022-08-05T12:22:03.971Z,43.26
2022-08-05T12:23:04.964Z,44.24
2022-08-05T12:24:04.958Z,43.73
2022-08-05T12:25:03.938Z,43.14
2022-08-05T12:26:03.925Z,43.53
2022-08-05T12:27:09.794Z,41.67
2022-08-05T12:28:05.174Z,43.07
2022-08-05T12:29:03.887Z,41.89
2022-08-05T12:30:03.929Z,43.65
2022-08-05T12:31:03.850Z,43.75
2022-08-05T12:32:04.547Z,42.77
2022-08-05T12:33:07.544Z,43.24
2022-08-05T12:34:04.821Z,45.00
2022-08-05T12:35:04.080Z,43.80
2022-08-05T12:36:03.884Z,45.44
2022-08-05T12:37:03.789Z,42.12
2022-08-05T12:38:03.782Z,41.81
2022-08-05T12:39:03.795Z,41.22
2022-08-05T12:40:10.504Z,41.91
2022-08-05T12:41:05.622Z,42.49
2022-08-05T12:42:03.737Z,43.37
2022-08-05T12:43:03.714Z,42.40
2022-08-05T12:44:03.733Z,41.69
2022-08-05T12:45:03.685Z,42.28
2022-08-05T12:46:04.675Z,39.94
2022-08-05T12:47:03.844Z,41.30
2022-08-05T12:48:27.592Z,43.05
2022-08-05T12:49:12.878Z,41.52
2022-08-05T12:50:07.267Z,42.40
2022-08-05T12:51:04.608Z,40.16
2022-08-05T12:52:13.746Z,42.98
2022-08-05T12:53:04.595Z,41.50
2022-08-05T12:54:03.772Z,43.57
2022-08-05T12:55:03.579Z,40.93
2022-08-05T12:56:03.550Z,41.42